sensor_id;sensor_type;location;lat;lon;timestamp;P1;durP1;ratioP1;P2;durP2;ratioP2
6406;SDS011;3236;51.022;6.818;2023-07-20T00:02:26;6.22;;;3.92;;
6406;SDS011;3236;51.022;6.818;2023-07-20T00:04:53;7.15;;;3.20;;
6406;SDS011;3236;51.022;6.818;2023-07-20T00:07:22;7.63;;;3.92;;
6406;SDS011;3236;51.022;6.818;2023-07-20T00:09:50;8.05;;;3.40;;
6406;SDS011;3236;51.022;6.818;2023-07-20T00:12:16;7.10;;;4.00;;
6406;SDS011;3236;51.022;6.818;2023-07-20T00:14:43;9.90;;;4.00;;
6406;SDS011;3236;51.022;6.818;2023-07-20T00:17:12;11.50;;;4.13;;
6406;SDS011;3236;51.022;6.818;2023-07-20T00:19:39;7.70;;;3.88;;
6406;SDS011;3236;51.022;6.818;2023-07-20T00:22:06;13.32;;;4.07;;
6406;SDS011;3236;51.022;6.818;2023-07-20T00:24:40;6.40;;;4.03;;
6406;SDS011;3236;51.022;6.818;2023-07-20T00:27:10;9.25;;;3.50;;
6406;SDS011;3236;51.022;6.818;2023-07-20T00:29:37;6.00;;;3.22;;
6406;SDS011;3236;51.022;6.818;2023-07-20T00:32:05;6.10;;;3.63;;
6406;SDS011;3236;51.022;6.818;2023-07-20T00:34:34;7.85;;;3.67;;
6406;SDS011;3236;51.022;6.818;2023-07-20T00:37:03;10.05;;;3.78;;
6406;SDS011;3236;51.022;6.818;2023-07-20T00:39:31;6.25;;;3.42;;
6406;SDS011;3236;51.022;6.818;2023-07-20T00:41:58;7.90;;;3.70;;
6406;SDS011;3236;51.022;6.818;2023-07-20T00:44:25;10.68;;;3.83;;
6406;SDS011;3236;51.022;6.818;2023-07-20T00:46:53;6.40;;;4.18;;
6406;SDS011;3236;51.022;6.818;2023-07-20T00:49:20;6.15;;;3.80;;
6406;SDS011;3236;51.022;6.818;2023-07-20T00:51:49;6.57;;;3.60;;
6406;SDS011;3236;51.022;6.818;2023-07-20T00:54:16;8.95;;;3.47;;
6406;SDS011;3236;51.022;6.818;2023-07-20T00:56:44;6.97;;;3.92;;
6406;SDS011;3236;51.022;6.818;2023-07-20T00:59:12;9.35;;;3.47;;
6406;SDS011;3236;51.022;6.818;2023-07-20T01:01:40;8.52;;;4.35;;
6406;SDS011;3236;51.022;6.818;2023-07-20T01:04:07;8.93;;;3.97;;
6406;SDS011;3236;51.022;6.818;2023-07-20T01:06:36;6.15;;;3.83;;
6406;SDS011;3236;51.022;6.818;2023-07-20T01:09:18;9.07;;;3.72;;
6406;SDS011;3236;51.022;6.818;2023-07-20T01:11:52;5.70;;;3.50;;
6406;SDS011;3236;51.022;6.818;2023-07-20T01:14:24;12.40;;;3.78;;
6406;SDS011;3236;51.022;6.818;2023-07-20T01:16:52;10.35;;;4.50;;
6406;SDS011;3236;51.022;6.818;2023-07-20T01:19:20;8.85;;;3.75;;
6406;SDS011;3236;51.022;6.818;2023-07-20T01:21:48;7.40;;;3.30;;
6406;SDS011;3236;51.022;6.818;2023-07-20T01:30:48;4.35;;;3.22;;
6406;SDS011;3236;51.022;6.818;2023-07-20T01:33:23;11.23;;;3.58;;
6406;SDS011;3236;51.022;6.818;2023-07-20T01:35:53;9.00;;;3.67;;
6406;SDS011;3236;51.022;6.818;2023-07-20T01:38:22;10.90;;;3.45;;
6406;SDS011;3236;51.022;6.818;2023-07-20T01:40:53;6.68;;;3.10;;
6406;SDS011;3236;51.022;6.818;2023-07-20T01:43:24;5.80;;;3.17;;
6406;SDS011;3236;51.022;6.818;2023-07-20T01:45:54;5.88;;;3.17;;
6406;SDS011;3236;51.022;6.818;2023-07-20T01:48:22;7.13;;;3.25;;
6406;SDS011;3236;51.022;6.818;2023-07-20T01:50:49;7.25;;;3.65;;
6406;SDS011;3236;51.022;6.818;2023-07-20T01:53:17;6.13;;;3.45;;
6406;SDS011;3236;51.022;6.818;2023-07-20T01:55:46;6.60;;;2.72;;
6406;SDS011;3236;51.022;6.818;2023-07-20T01:58:13;6.07;;;3.17;;
6406;SDS011;3236;51.022;6.818;2023-07-20T02:00:40;4.80;;;2.40;;
6406;SDS011;3236;51.022;6.818;2023-07-20T02:03:07;5.85;;;2.80;;
6406;SDS011;3236;51.022;6.818;2023-07-20T02:05:43;12.00;;;3.47;;
6406;SDS011;3236;51.022;6.818;2023-07-20T02:08:10;7.43;;;3.00;;
6406;SDS011;3236;51.022;6.818;2023-07-20T02:10:38;5.05;;;3.20;;
6406;SDS011;3236;51.022;6.818;2023-07-20T02:13:05;5.38;;;3.45;;
6406;SDS011;3236;51.022;6.818;2023-07-20T02:15:32;6.60;;;3.40;;
6406;SDS011;3236;51.022;6.818;2023-07-20T02:17:59;7.00;;;3.45;;
6406;SDS011;3236;51.022;6.818;2023-07-20T02:20:31;9.77;;;3.40;;
6406;SDS011;3236;51.022;6.818;2023-07-20T02:22:59;7.00;;;3.25;;
6406;SDS011;3236;51.022;6.818;2023-07-20T02:25:27;8.23;;;3.17;;
6406;SDS011;3236;51.022;6.818;2023-07-20T02:27:55;6.80;;;3.38;;
6406;SDS011;3236;51.022;6.818;2023-07-20T02:30:23;3.97;;;3.10;;
6406;SDS011;3236;51.022;6.818;2023-07-20T02:32:51;3.97;;;3.13;;
6406;SDS011;3236;51.022;6.818;2023-07-20T02:35:18;5.03;;;3.25;;
6406;SDS011;3236;51.022;6.818;2023-07-20T02:37:45;7.18;;;3.70;;
6406;SDS011;3236;51.022;6.818;2023-07-20T02:40:14;6.38;;;3.53;;
6406;SDS011;3236;51.022;6.818;2023-07-20T02:42:41;7.53;;;3.50;;
6406;SDS011;3236;51.022;6.818;2023-07-20T02:45:08;7.28;;;3.50;;
6406;SDS011;3236;51.022;6.818;2023-07-20T02:47:41;5.60;;;3.08;;
6406;SDS011;3236;51.022;6.818;2023-07-20T02:50:08;7.07;;;3.67;;
6406;SDS011;3236;51.022;6.818;2023-07-20T02:52:44;13.93;;;4.30;;
6406;SDS011;3236;51.022;6.818;2023-07-20T02:55:12;8.48;;;4.03;;
6406;SDS011;3236;51.022;6.818;2023-07-20T02:57:40;7.90;;;3.50;;
6406;SDS011;3236;51.022;6.818;2023-07-20T03:00:08;8.27;;;3.83;;
6406;SDS011;3236;51.022;6.818;2023-07-20T03:02:37;7.68;;;4.15;;
6406;SDS011;3236;51.022;6.818;2023-07-20T03:05:07;6.28;;;4.00;;
6406;SDS011;3236;51.022;6.818;2023-07-20T03:07:34;8.80;;;3.53;;
6406;SDS011;3236;51.022;6.818;2023-07-20T03:10:01;8.75;;;3.80;;
6406;SDS011;3236;51.022;6.818;2023-07-20T03:12:29;9.65;;;4.40;;
6406;SDS011;3236;51.022;6.818;2023-07-20T03:15:00;8.10;;;4.65;;
6406;SDS011;3236;51.022;6.818;2023-07-20T03:17:27;11.25;;;4.40;;
6406;SDS011;3236;51.022;6.818;2023-07-20T03:19:54;6.50;;;3.80;;
6406;SDS011;3236;51.022;6.818;2023-07-20T03:22:21;5.90;;;3.47;;
6406;SDS011;3236;51.022;6.818;2023-07-20T03:24:49;7.30;;;3.20;;
6406;SDS011;3236;51.022;6.818;2023-07-20T03:27:17;6.93;;;3.53;;
6406;SDS011;3236;51.022;6.818;2023-07-20T03:29:44;5.93;;;3.83;;
6406;SDS011;3236;51.022;6.818;2023-07-20T03:32:13;8.00;;;4.00;;
6406;SDS011;3236;51.022;6.818;2023-07-20T03:34:40;10.75;;;4.78;;
6406;SDS011;3236;51.022;6.818;2023-07-20T03:37:09;12.20;;;4.22;;
6406;SDS011;3236;51.022;6.818;2023-07-20T03:39:39;8.73;;;4.15;;
6406;SDS011;3236;51.022;6.818;2023-07-20T03:42:06;9.23;;;4.70;;
6406;SDS011;3236;51.022;6.818;2023-07-20T03:44:34;6.15;;;4.15;;
6406;SDS011;3236;51.022;6.818;2023-07-20T03:47:01;14.30;;;4.72;;
6406;SDS011;3236;51.022;6.818;2023-07-20T03:49:32;8.93;;;3.65;;
6406;SDS011;3236;51.022;6.818;2023-07-20T03:52:02;8.02;;;3.75;;
6406;SDS011;3236;51.022;6.818;2023-07-20T03:54:30;7.18;;;4.15;;
6406;SDS011;3236;51.022;6.818;2023-07-20T03:56:57;13.65;;;3.95;;
6406;SDS011;3236;51.022;6.818;2023-07-20T03:59:25;6.85;;;3.70;;
6406;SDS011;3236;51.022;6.818;2023-07-20T04:01:58;8.18;;;3.67;;
6406;SDS011;3236;51.022;6.818;2023-07-20T04:04:25;6.65;;;3.42;;
6406;SDS011;3236;51.022;6.818;2023-07-20T04:06:54;9.60;;;3.88;;
6406;SDS011;3236;51.022;6.818;2023-07-20T04:09:20;9.07;;;3.45;;
6406;SDS011;3236;51.022;6.818;2023-07-20T04:11:48;8.93;;;3.60;;
6406;SDS011;3236;51.022;6.818;2023-07-20T04:14:18;10.65;;;3.55;;
6406;SDS011;3236;51.022;6.818;2023-07-20T04:16:46;9.20;;;3.55;;
6406;SDS011;3236;51.022;6.818;2023-07-20T04:19:13;7.05;;;3.03;;
6406;SDS011;3236;51.022;6.818;2023-07-20T04:21:40;9.80;;;3.67;;
6406;SDS011;3236;51.022;6.818;2023-07-20T04:24:09;5.43;;;3.13;;
6406;SDS011;3236;51.022;6.818;2023-07-20T04:26:36;8.50;;;3.22;;
6406;SDS011;3236;51.022;6.818;2023-07-20T04:29:04;8.07;;;3.17;;
6406;SDS011;3236;51.022;6.818;2023-07-20T04:31:31;7.57;;;3.25;;
6406;SDS011;3236;51.022;6.818;2023-07-20T04:33:59;12.20;;;3.88;;
6406;SDS011;3236;51.022;6.818;2023-07-20T04:36:27;10.65;;;3.65;;
6406;SDS011;3236;51.022;6.818;2023-07-20T04:38:55;8.07;;;3.55;;
6406;SDS011;3236;51.022;6.818;2023-07-20T04:41:23;6.45;;;3.65;;
6406;SDS011;3236;51.022;6.818;2023-07-20T04:43:51;7.50;;;3.30;;
6406;SDS011;3236;51.022;6.818;2023-07-20T04:46:18;10.68;;;3.63;;
6406;SDS011;3236;51.022;6.818;2023-07-20T04:48:46;6.90;;;3.97;;
6406;SDS011;3236;51.022;6.818;2023-07-20T04:51:13;9.93;;;4.20;;
6406;SDS011;3236;51.022;6.818;2023-07-20T04:53:43;8.00;;;3.65;;
6406;SDS011;3236;51.022;6.818;2023-07-20T04:56:10;8.70;;;3.70;;
6406;SDS011;3236;51.022;6.818;2023-07-20T04:58:39;7.22;;;3.70;;
6406;SDS011;3236;51.022;6.818;2023-07-20T05:01:06;9.25;;;3.45;;
6406;SDS011;3236;51.022;6.818;2023-07-20T05:03:33;6.75;;;3.65;;
6406;SDS011;3236;51.022;6.818;2023-07-20T05:06:03;8.85;;;3.65;;
6406;SDS011;3236;51.022;6.818;2023-07-20T05:08:30;8.35;;;4.10;;
6406;SDS011;3236;51.022;6.818;2023-07-20T05:10:59;10.27;;;4.20;;
6406;SDS011;3236;51.022;6.818;2023-07-20T05:13:26;10.45;;;4.13;;
6406;SDS011;3236;51.022;6.818;2023-07-20T05:15:54;6.85;;;3.47;;
6406;SDS011;3236;51.022;6.818;2023-07-20T05:18:22;9.20;;;4.35;;
6406;SDS011;3236;51.022;6.818;2023-07-20T05:20:49;8.82;;;4.85;;
6406;SDS011;3236;51.022;6.818;2023-07-20T05:23:18;13.10;;;5.53;;
6406;SDS011;3236;51.022;6.818;2023-07-20T05:25:45;7.90;;;4.18;;
6406;SDS011;3236;51.022;6.818;2023-07-20T05:28:13;11.15;;;5.05;;
6406;SDS011;3236;51.022;6.818;2023-07-20T05:30:40;12.77;;;5.40;;
6406;SDS011;3236;51.022;6.818;2023-07-20T05:33:15;10.98;;;5.68;;
6406;SDS011;3236;51.022;6.818;2023-07-20T05:35:42;13.43;;;5.10;;
6406;SDS011;3236;51.022;6.818;2023-07-20T05:38:09;11.60;;;5.95;;
6406;SDS011;3236;51.022;6.818;2023-07-20T05:40:37;10.32;;;6.60;;
6406;SDS011;3236;51.022;6.818;2023-07-20T05:43:05;12.57;;;6.40;;
6406;SDS011;3236;51.022;6.818;2023-07-20T05:45:32;13.77;;;6.40;;
6406;SDS011;3236;51.022;6.818;2023-07-20T05:47:59;16.25;;;6.38;;
6406;SDS011;3236;51.022;6.818;2023-07-20T05:50:28;14.32;;;8.45;;
6406;SDS011;3236;51.022;6.818;2023-07-20T05:52:55;15.60;;;8.43;;
6406;SDS011;3236;51.022;6.818;2023-07-20T05:55:22;17.05;;;8.10;;
6406;SDS011;3236;51.022;6.818;2023-07-20T05:57:49;14.43;;;8.40;;
6406;SDS011;3236;51.022;6.818;2023-07-20T06:00:17;17.20;;;8.73;;
6406;SDS011;3236;51.022;6.818;2023-07-20T06:02:51;16.48;;;8.65;;
6406;SDS011;3236;51.022;6.818;2023-07-20T06:05:21;14.27;;;8.20;;
6406;SDS011;3236;51.022;6.818;2023-07-20T06:07:50;14.35;;;7.90;;
6406;SDS011;3236;51.022;6.818;2023-07-20T06:10:20;17.05;;;8.85;;
6406;SDS011;3236;51.022;6.818;2023-07-20T06:12:47;15.88;;;9.43;;
6406;SDS011;3236;51.022;6.818;2023-07-20T06:15:24;16.55;;;9.10;;
6406;SDS011;3236;51.022;6.818;2023-07-20T06:17:53;17.50;;;9.63;;
6406;SDS011;3236;51.022;6.818;2023-07-20T06:20:21;17.35;;;9.10;;
6406;SDS011;3236;51.022;6.818;2023-07-20T06:22:50;13.65;;;8.90;;
6406;SDS011;3236;51.022;6.818;2023-07-20T06:25:17;16.80;;;9.48;;
6406;SDS011;3236;51.022;6.818;2023-07-20T06:27:49;15.02;;;8.32;;
6406;SDS011;3236;51.022;6.818;2023-07-20T06:30:17;12.40;;;7.55;;
6406;SDS011;3236;51.022;6.818;2023-07-20T06:32:44;15.25;;;8.50;;
6406;SDS011;3236;51.022;6.818;2023-07-20T06:35:11;16.75;;;7.75;;
6406;SDS011;3236;51.022;6.818;2023-07-20T06:37:39;12.63;;;7.95;;
6406;SDS011;3236;51.022;6.818;2023-07-20T06:40:08;13.57;;;9.05;;
6406;SDS011;3236;51.022;6.818;2023-07-20T06:42:35;21.08;;;10.90;;
6406;SDS011;3236;51.022;6.818;2023-07-20T06:45:03;13.02;;;8.93;;
6406;SDS011;3236;51.022;6.818;2023-07-20T06:47:30;17.02;;;10.88;;
6406;SDS011;3236;51.022;6.818;2023-07-20T06:49:58;14.40;;;9.15;;
6406;SDS011;3236;51.022;6.818;2023-07-20T06:52:25;21.33;;;11.63;;
6406;SDS011;3236;51.022;6.818;2023-07-20T06:54:52;15.27;;;10.57;;
6406;SDS011;3236;51.022;6.818;2023-07-20T06:57:21;13.73;;;9.20;;
6406;SDS011;3236;51.022;6.818;2023-07-20T06:59:48;13.43;;;9.38;;
6406;SDS011;3236;51.022;6.818;2023-07-20T07:02:15;15.73;;;7.75;;
6406;SDS011;3236;51.022;6.818;2023-07-20T07:04:42;10.68;;;7.88;;
6406;SDS011;3236;51.022;6.818;2023-07-20T07:07:10;13.15;;;7.95;;
6406;SDS011;3236;51.022;6.818;2023-07-20T07:09:38;13.57;;;7.32;;
6406;SDS011;3236;51.022;6.818;2023-07-20T07:12:05;9.05;;;6.13;;
6406;SDS011;3236;51.022;6.818;2023-07-20T07:14:37;10.13;;;5.07;;
6406;SDS011;3236;51.022;6.818;2023-07-20T07:17:05;13.63;;;6.75;;
6406;SDS011;3236;51.022;6.818;2023-07-20T07:19:32;9.73;;;5.03;;
6406;SDS011;3236;51.022;6.818;2023-07-20T07:21:59;12.00;;;6.47;;
6406;SDS011;3236;51.022;6.818;2023-07-20T07:24:26;12.63;;;6.85;;
6406;SDS011;3236;51.022;6.818;2023-07-20T07:26:58;15.68;;;7.65;;
6406;SDS011;3236;51.022;6.818;2023-07-20T07:29:29;12.10;;;7.70;;
6406;SDS011;3236;51.022;6.818;2023-07-20T07:31:57;9.90;;;6.70;;
6406;SDS011;3236;51.022;6.818;2023-07-20T07:34:24;11.07;;;7.85;;
6406;SDS011;3236;51.022;6.818;2023-07-20T07:36:51;8.48;;;6.25;;
6406;SDS011;3236;51.022;6.818;2023-07-20T07:39:18;12.00;;;6.07;;
6406;SDS011;3236;51.022;6.818;2023-07-20T07:41:46;11.82;;;6.47;;
6406;SDS011;3236;51.022;6.818;2023-07-20T07:44:13;6.57;;;5.10;;
6406;SDS011;3236;51.022;6.818;2023-07-20T07:46:40;8.88;;;4.78;;
6406;SDS011;3236;51.022;6.818;2023-07-20T07:49:09;6.20;;;4.45;;
6406;SDS011;3236;51.022;6.818;2023-07-20T07:51:36;12.57;;;4.00;;
6406;SDS011;3236;51.022;6.818;2023-07-20T07:54:03;6.85;;;3.90;;
6406;SDS011;3236;51.022;6.818;2023-07-20T07:56:31;4.18;;;3.38;;
6406;SDS011;3236;51.022;6.818;2023-07-20T07:58:58;5.55;;;3.55;;
6406;SDS011;3236;51.022;6.818;2023-07-20T08:01:25;4.80;;;3.30;;
6406;SDS011;3236;51.022;6.818;2023-07-20T08:03:52;9.90;;;4.65;;
6406;SDS011;3236;51.022;6.818;2023-07-20T08:06:21;5.72;;;4.30;;
6406;SDS011;3236;51.022;6.818;2023-07-20T08:08:49;6.97;;;3.75;;
6406;SDS011;3236;51.022;6.818;2023-07-20T08:11:16;6.72;;;3.10;;
6406;SDS011;3236;51.022;6.818;2023-07-20T08:13:43;3.47;;;3.00;;
6406;SDS011;3236;51.022;6.818;2023-07-20T08:16:10;10.60;;;3.50;;
6406;SDS011;3236;51.022;6.818;2023-07-20T08:18:37;5.72;;;2.88;;
6406;SDS011;3236;51.022;6.818;2023-07-20T08:21:04;8.07;;;3.78;;
6406;SDS011;3236;51.022;6.818;2023-07-20T08:23:34;5.78;;;2.65;;
6406;SDS011;3236;51.022;6.818;2023-07-20T08:26:01;3.42;;;2.17;;
6406;SDS011;3236;51.022;6.818;2023-07-20T08:28:28;4.15;;;2.38;;
6406;SDS011;3236;51.022;6.818;2023-07-20T08:30:56;2.60;;;2.40;;
6406;SDS011;3236;51.022;6.818;2023-07-20T08:33:24;8.82;;;2.70;;
6406;SDS011;3236;51.022;6.818;2023-07-20T08:35:54;4.03;;;2.35;;
6406;SDS011;3236;51.022;6.818;2023-07-20T08:38:22;3.33;;;2.40;;
6406;SDS011;3236;51.022;6.818;2023-07-20T08:40:51;3.33;;;2.33;;
6406;SDS011;3236;51.022;6.818;2023-07-20T08:43:19;6.55;;;3.88;;
6406;SDS011;3236;51.022;6.818;2023-07-20T08:48:18;5.18;;;3.40;;
6406;SDS011;3236;51.022;6.818;2023-07-20T08:50:47;6.80;;;3.10;;
6406;SDS011;3236;51.022;6.818;2023-07-20T08:53:20;4.70;;;3.08;;
6406;SDS011;3236;51.022;6.818;2023-07-20T08:55:48;5.63;;;2.70;;
6406;SDS011;3236;51.022;6.818;2023-07-20T08:58:18;4.35;;;3.03;;
6406;SDS011;3236;51.022;6.818;2023-07-20T09:00:47;2.83;;;2.20;;
6406;SDS011;3236;51.022;6.818;2023-07-20T09:03:15;4.75;;;1.55;;
6406;SDS011;3236;51.022;6.818;2023-07-20T09:05:43;1.92;;;1.52;;
6406;SDS011;3236;51.022;6.818;2023-07-20T09:08:11;2.05;;;1.38;;
6406;SDS011;3236;51.022;6.818;2023-07-20T09:10:38;2.65;;;1.67;;
6406;SDS011;3236;51.022;6.818;2023-07-20T09:13:06;3.63;;;1.67;;
6406;SDS011;3236;51.022;6.818;2023-07-20T09:15:34;2.33;;;1.80;;
6406;SDS011;3236;51.022;6.818;2023-07-20T09:18:02;2.03;;;1.48;;
6406;SDS011;3236;51.022;6.818;2023-07-20T09:20:31;2.35;;;1.52;;
6406;SDS011;3236;51.022;6.818;2023-07-20T09:22:59;2.70;;;1.52;;
6406;SDS011;3236;51.022;6.818;2023-07-20T09:25:30;2.50;;;1.60;;
6406;SDS011;3236;51.022;6.818;2023-07-20T09:28:01;4.32;;;1.63;;
6406;SDS011;3236;51.022;6.818;2023-07-20T09:30:29;2.38;;;2.08;;
6406;SDS011;3236;51.022;6.818;2023-07-20T09:32:57;3.30;;;1.50;;
6406;SDS011;3236;51.022;6.818;2023-07-20T09:35:24;2.92;;;1.80;;
6406;SDS011;3236;51.022;6.818;2023-07-20T09:37:54;2.60;;;1.90;;
6406;SDS011;3236;51.022;6.818;2023-07-20T09:40:24;3.00;;;1.42;;
6406;SDS011;3236;51.022;6.818;2023-07-20T09:42:55;4.00;;;1.65;;
6406;SDS011;3236;51.022;6.818;2023-07-20T09:45:30;4.78;;;2.00;;
6406;SDS011;3236;51.022;6.818;2023-07-20T09:48:04;2.90;;;2.10;;
6406;SDS011;3236;51.022;6.818;2023-07-20T09:50:31;4.70;;;1.70;;
6406;SDS011;3236;51.022;6.818;2023-07-20T09:52:59;1.73;;;1.63;;
6406;SDS011;3236;51.022;6.818;2023-07-20T09:58:30;1.67;;;1.52;;
6406;SDS011;3236;51.022;6.818;2023-07-20T10:01:02;2.63;;;1.33;;
6406;SDS011;3236;51.022;6.818;2023-07-20T10:03:38;2.13;;;1.58;;
6406;SDS011;3236;51.022;6.818;2023-07-20T10:06:08;2.95;;;1.33;;
6406;SDS011;3236;51.022;6.818;2023-07-20T10:11:07;3.47;;;2.08;;
6406;SDS011;3236;51.022;6.818;2023-07-20T10:13:36;2.95;;;1.30;;
6406;SDS011;3236;51.022;6.818;2023-07-20T10:16:07;1.63;;;1.30;;
6406;SDS011;3236;51.022;6.818;2023-07-20T10:18:41;1.83;;;1.33;;
6406;SDS011;3236;51.022;6.818;2023-07-20T10:21:14;5.93;;;1.40;;
6406;SDS011;3236;51.022;6.818;2023-07-20T10:23:43;3.63;;;1.27;;
6406;SDS011;3236;51.022;6.818;2023-07-20T10:26:11;1.50;;;1.30;;
6406;SDS011;3236;51.022;6.818;2023-07-20T10:28:39;1.92;;;1.30;;
6406;SDS011;3236;51.022;6.818;2023-07-20T10:31:07;1.35;;;1.10;;
6406;SDS011;3236;51.022;6.818;2023-07-20T10:33:36;1.25;;;1.15;;
6406;SDS011;3236;51.022;6.818;2023-07-20T10:36:05;4.50;;;1.13;;
6406;SDS011;3236;51.022;6.818;2023-07-20T10:38:38;1.10;;;1.00;;
6406;SDS011;3236;51.022;6.818;2023-07-20T10:41:15;1.65;;;0.93;;
6406;SDS011;3236;51.022;6.818;2023-07-20T10:43:43;2.60;;;0.98;;
6406;SDS011;3236;51.022;6.818;2023-07-20T10:46:13;1.55;;;1.13;;
6406;SDS011;3236;51.022;6.818;2023-07-20T10:49:00;1.45;;;1.20;;
6406;SDS011;3236;51.022;6.818;2023-07-20T10:51:29;4.05;;;1.20;;
6406;SDS011;3236;51.022;6.818;2023-07-20T10:54:07;1.95;;;1.20;;
6406;SDS011;3236;51.022;6.818;2023-07-20T10:56:34;1.50;;;0.90;;
6406;SDS011;3236;51.022;6.818;2023-07-20T10:59:02;1.17;;;1.02;;
6406;SDS011;3236;51.022;6.818;2023-07-20T11:01:45;1.30;;;0.98;;
6406;SDS011;3236;51.022;6.818;2023-07-20T11:04:14;4.90;;;1.30;;
6406;SDS011;3236;51.022;6.818;2023-07-20T11:06:45;1.23;;;0.90;;
6406;SDS011;3236;51.022;6.818;2023-07-20T11:09:13;1.80;;;0.98;;
6406;SDS011;3236;51.022;6.818;2023-07-20T11:11:41;1.63;;;0.90;;
6406;SDS011;3236;51.022;6.818;2023-07-20T11:14:10;1.33;;;0.80;;
6406;SDS011;3236;51.022;6.818;2023-07-20T11:16:46;3.08;;;1.00;;
6406;SDS011;3236;51.022;6.818;2023-07-20T11:19:16;1.00;;;0.90;;
6406;SDS011;3236;51.022;6.818;2023-07-20T11:21:50;1.40;;;1.02;;
6406;SDS011;3236;51.022;6.818;2023-07-20T11:24:17;1.13;;;1.02;;
6406;SDS011;3236;51.022;6.818;2023-07-20T11:26:45;1.60;;;1.50;;
6406;SDS011;3236;51.022;6.818;2023-07-20T11:29:13;1.63;;;1.05;;
6406;SDS011;3236;51.022;6.818;2023-07-20T11:31:42;1.85;;;1.00;;
6406;SDS011;3236;51.022;6.818;2023-07-20T11:34:11;1.45;;;1.02;;
6406;SDS011;3236;51.022;6.818;2023-07-20T11:36:39;1.98;;;1.13;;
6406;SDS011;3236;51.022;6.818;2023-07-20T11:39:09;1.90;;;1.05;;
6406;SDS011;3236;51.022;6.818;2023-07-20T11:41:37;1.42;;;1.00;;
6406;SDS011;3236;51.022;6.818;2023-07-20T11:44:05;1.55;;;0.98;;
6406;SDS011;3236;51.022;6.818;2023-07-20T11:46:35;1.73;;;1.05;;
6406;SDS011;3236;51.022;6.818;2023-07-20T11:49:03;0.88;;;0.73;;
6406;SDS011;3236;51.022;6.818;2023-07-20T11:51:30;3.33;;;0.90;;
6406;SDS011;3236;51.022;6.818;2023-07-20T11:53:58;0.88;;;0.80;;
6406;SDS011;3236;51.022;6.818;2023-07-20T11:56:26;0.70;;;0.70;;
6406;SDS011;3236;51.022;6.818;2023-07-20T11:59:01;1.63;;;1.08;;
6406;SDS011;3236;51.022;6.818;2023-07-20T12:01:29;1.90;;;1.27;;
6406;SDS011;3236;51.022;6.818;2023-07-20T12:03:59;1.63;;;0.82;;
6406;SDS011;3236;51.022;6.818;2023-07-20T12:06:27;1.27;;;1.10;;
6406;SDS011;3236;51.022;6.818;2023-07-20T12:08:56;1.20;;;1.00;;
6406;SDS011;3236;51.022;6.818;2023-07-20T12:11:33;1.63;;;1.10;;
6406;SDS011;3236;51.022;6.818;2023-07-20T12:14:01;4.07;;;0.90;;
6406;SDS011;3236;51.022;6.818;2023-07-20T12:16:29;2.05;;;0.88;;
6406;SDS011;3236;51.022;6.818;2023-07-20T12:19:00;0.98;;;0.90;;
6406;SDS011;3236;51.022;6.818;2023-07-20T12:21:28;5.05;;;1.30;;
6406;SDS011;3236;51.022;6.818;2023-07-20T12:23:58;4.40;;;1.10;;
6406;SDS011;3236;51.022;6.818;2023-07-20T12:26:25;1.48;;;0.82;;
6406;SDS011;3236;51.022;6.818;2023-07-20T12:28:54;0.80;;;0.70;;
6406;SDS011;3236;51.022;6.818;2023-07-20T12:31:22;1.00;;;0.90;;
6406;SDS011;3236;51.022;6.818;2023-07-20T12:33:49;3.42;;;1.30;;
6406;SDS011;3236;51.022;6.818;2023-07-20T12:36:17;2.15;;;0.80;;
6406;SDS011;3236;51.022;6.818;2023-07-20T12:38:44;1.02;;;0.90;;
6406;SDS011;3236;51.022;6.818;2023-07-20T12:41:12;2.90;;;1.20;;
6406;SDS011;3236;51.022;6.818;2023-07-20T12:43:45;1.30;;;1.00;;
6406;SDS011;3236;51.022;6.818;2023-07-20T12:46:14;3.58;;;1.40;;
6406;SDS011;3236;51.022;6.818;2023-07-20T12:48:42;2.83;;;1.05;;
6406;SDS011;3236;51.022;6.818;2023-07-20T12:51:09;1.75;;;1.10;;
6406;SDS011;3236;51.022;6.818;2023-07-20T12:53:37;2.30;;;1.20;;
6406;SDS011;3236;51.022;6.818;2023-07-20T12:56:04;1.30;;;1.17;;
6406;SDS011;3236;51.022;6.818;2023-07-20T12:58:32;2.75;;;1.50;;
6406;SDS011;3236;51.022;6.818;2023-07-20T13:00:59;3.80;;;1.10;;
6406;SDS011;3236;51.022;6.818;2023-07-20T13:03:31;1.45;;;1.20;;
6406;SDS011;3236;51.022;6.818;2023-07-20T13:06:00;0.77;;;0.77;;
6406;SDS011;3236;51.022;6.818;2023-07-20T13:08:27;1.30;;;0.98;;
6406;SDS011;3236;51.022;6.818;2023-07-20T13:10:54;2.25;;;1.13;;
6406;SDS011;3236;51.022;6.818;2023-07-20T13:13:21;1.20;;;1.10;;
6406;SDS011;3236;51.022;6.818;2023-07-20T13:15:48;2.35;;;0.90;;
6406;SDS011;3236;51.022;6.818;2023-07-20T13:18:15;4.18;;;1.10;;
6406;SDS011;3236;51.022;6.818;2023-07-20T13:20:45;4.28;;;1.38;;
6406;SDS011;3236;51.022;6.818;2023-07-20T13:23:12;2.92;;;1.27;;
6406;SDS011;3236;51.022;6.818;2023-07-20T13:25:39;1.27;;;1.17;;
6406;SDS011;3236;51.022;6.818;2023-07-20T13:28:08;3.08;;;1.20;;
6406;SDS011;3236;51.022;6.818;2023-07-20T13:30:36;2.60;;;1.40;;
6406;SDS011;3236;51.022;6.818;2023-07-20T13:33:03;5.97;;;1.60;;
6406;SDS011;3236;51.022;6.818;2023-07-20T13:35:30;8.07;;;1.10;;
6406;SDS011;3236;51.022;6.818;2023-07-20T13:37:58;2.20;;;1.08;;
6406;SDS011;3236;51.022;6.818;2023-07-20T13:40:25;2.35;;;1.10;;
6406;SDS011;3236;51.022;6.818;2023-07-20T13:42:52;3.70;;;1.33;;
6406;SDS011;3236;51.022;6.818;2023-07-20T13:45:19;2.50;;;1.10;;
6406;SDS011;3236;51.022;6.818;2023-07-20T13:47:47;3.40;;;1.10;;
6406;SDS011;3236;51.022;6.818;2023-07-20T13:50:23;3.88;;;1.10;;
6406;SDS011;3236;51.022;6.818;2023-07-20T13:52:53;1.48;;;1.02;;
6406;SDS011;3236;51.022;6.818;2023-07-20T13:55:22;3.20;;;1.08;;
6406;SDS011;3236;51.022;6.818;2023-07-20T13:57:50;2.25;;;1.42;;
6406;SDS011;3236;51.022;6.818;2023-07-20T14:00:19;1.27;;;1.17;;
6406;SDS011;3236;51.022;6.818;2023-07-20T14:02:46;1.52;;;0.98;;
6406;SDS011;3236;51.022;6.818;2023-07-20T14:05:13;1.50;;;1.00;;
6406;SDS011;3236;51.022;6.818;2023-07-20T14:07:41;3.45;;;1.20;;
6406;SDS011;3236;51.022;6.818;2023-07-20T14:10:08;3.85;;;1.10;;
6406;SDS011;3236;51.022;6.818;2023-07-20T14:12:40;3.50;;;1.13;;
6406;SDS011;3236;51.022;6.818;2023-07-20T14:15:07;4.55;;;1.30;;
6406;SDS011;3236;51.022;6.818;2023-07-20T14:17:35;1.75;;;1.33;;
6406;SDS011;3236;51.022;6.818;2023-07-20T14:20:03;4.68;;;1.30;;
6406;SDS011;3236;51.022;6.818;2023-07-20T14:22:31;2.88;;;1.10;;
6406;SDS011;3236;51.022;6.818;2023-07-20T14:24:58;3.78;;;1.40;;
6406;SDS011;3236;51.022;6.818;2023-07-20T14:27:25;2.10;;;1.33;;
6406;SDS011;3236;51.022;6.818;2023-07-20T14:29:53;2.17;;;1.20;;
6406;SDS011;3236;51.022;6.818;2023-07-20T14:32:21;9.23;;;1.40;;
6406;SDS011;3236;51.022;6.818;2023-07-20T14:34:48;2.45;;;1.17;;
6406;SDS011;3236;51.022;6.818;2023-07-20T14:37:16;4.03;;;1.30;;
6406;SDS011;3236;51.022;6.818;2023-07-20T14:39:43;1.40;;;1.30;;
6406;SDS011;3236;51.022;6.818;2023-07-20T14:42:10;5.25;;;1.13;;
6406;SDS011;3236;51.022;6.818;2023-07-20T14:44:39;5.57;;;1.30;;
6406;SDS011;3236;51.022;6.818;2023-07-20T14:47:07;4.47;;;1.13;;
6406;SDS011;3236;51.022;6.818;2023-07-20T14:49:38;2.13;;;0.80;;
6406;SDS011;3236;51.022;6.818;2023-07-20T14:52:07;1.95;;;1.10;;
6406;SDS011;3236;51.022;6.818;2023-07-20T14:54:35;2.40;;;0.85;;
6406;SDS011;3236;51.022;6.818;2023-07-20T14:57:02;2.78;;;1.08;;
6406;SDS011;3236;51.022;6.818;2023-07-20T14:59:29;3.42;;;0.90;;
6406;SDS011;3236;51.022;6.818;2023-07-20T15:01:57;6.53;;;1.20;;
6406;SDS011;3236;51.022;6.818;2023-07-20T15:04:25;4.45;;;1.10;;
6406;SDS011;3236;51.022;6.818;2023-07-20T15:06:52;6.93;;;1.35;;
6406;SDS011;3236;51.022;6.818;2023-07-20T15:09:19;1.15;;;1.05;;
6406;SDS011;3236;51.022;6.818;2023-07-20T15:11:47;1.75;;;1.05;;
6406;SDS011;3236;51.022;6.818;2023-07-20T15:14:14;2.30;;;1.00;;
6406;SDS011;3236;51.022;6.818;2023-07-20T15:16:41;3.13;;;0.90;;
6406;SDS011;3236;51.022;6.818;2023-07-20T15:19:08;3.20;;;1.00;;
6406;SDS011;3236;51.022;6.818;2023-07-20T15:21:40;0.80;;;0.80;;
6406;SDS011;3236;51.022;6.818;2023-07-20T15:24:07;1.38;;;0.93;;
6406;SDS011;3236;51.022;6.818;2023-07-20T15:26:34;0.88;;;0.88;;
6406;SDS011;3236;51.022;6.818;2023-07-20T15:29:04;3.28;;;0.95;;
6406;SDS011;3236;51.022;6.818;2023-07-20T15:31:31;2.97;;;0.80;;
6406;SDS011;3236;51.022;6.818;2023-07-20T15:33:58;3.95;;;1.02;;
6406;SDS011;3236;51.022;6.818;2023-07-20T15:36:25;2.95;;;1.15;;